UNAA METAR and TAF | Updated Today

UNAA METAR

Abakan Airport

Observation time: 10 min. ago

UNAA 060800Z 23002MPS 9000 NSC M01/M07 Q1020 R20/CLRD65 NOSIG RMK QFE743

Need help? Read our tutorial on how to read METARs or read the parsed version below.

Abakan Airport (UNAA) METAR

  • Weather conditions on Mon, 06 Dec 2021 08:00:00 +0000 (10 min. ago):
  • Present conditions: Dry
  • Clouds: No significant clouds are observed
  • Visibility: 9000 meters
  • Wind: 230 degrees at 2 knots
  • Temperature: -1 celsius
  • Dew point: -7 celsius
  • Pressure: 1020 millibars
  • Remarks: QFE743


Useful to know...

UNAA TAF

Abakan Airport

TAF UNAA 060500Z 0606/0706 20003MPS 6000 NSC TEMPO 0606/0706 3300 BR FU
Observation time: 3:10 hr. ago
Need help? Read our tutorial on how to read TAFs or read the parsed version below.

Parsed version of TAF for Abakan Airport (UNAA)

  • From 06 December at 06:00 UTC, to day 07 of the month at 06:00 UTC
  • Clouds: No significant clouds are observed
  • Visibility: 6000 meters
  • Wind: 200 degrees at 3
  • Expected to arise temporarily, from 06 December at 06:00 UTC, to day 07 of the month at 06:00 UTC
  • Visibility: 3300 meters
  • Other: Mist; smoke

Airports near UNAA